Terminal Aerodrome Forecast
Issued by NWS

Home | Current Version | Previous Version | Text Only | Print | Product List | Glossary On
Versions: 1 2 3 4 5 6 7 8 9 10 11 12 13 14 15 16 17
000
FTUS41 KAKQ 021720
TAFPHF
TAF
KPHF 021720Z 0218/0318 36006KT P6SM BKN030
      TEMPO 0218/0221 VRB25KT 2SM +TSRA BKN012CB
     FM022100 05006KT P6SM SHRA BKN025 BKN050
     FM022300 05005KT 6SM BR OVC010
     FM030500 05005KT 4SM BR OVC005=

USA.gov is the U.S. government's official web portal to all federal, state and local government web resources and services.